Time;durP1;ratioP1;P1;durP2;ratioP2;P2;SDS_P1;SDS_P2;PMS_P1;PMS_P2;Temp;Humidity;BMP_temperature;BMP_pressure;BME280_temperature;BME280_humidity;BME280_pressure;Samples;Min_cycle;Max_cycle;Signal;HPM_P1;HPM_P2
2022/04/28 00:00:02;;;;;;;10.90;4.87;;;;;;;-145.18;100.00;46658.44;4971683;28;20761;-72
2022/04/28 00:02:28;;;;;;;8.87;5.10;;;;;;;-145.18;100.00;46631.09;4971635;28;20289;-69
2022/04/28 00:04:54;;;;;;;11.37;4.77;;;;;;;-145.18;100.00;46629.13;4971278;28;20297;-69
2022/04/28 00:07:20;;;;;;;10.13;4.60;;;;;;;-145.18;100.00;46640.88;4971304;28;20288;-69
2022/04/28 00:09:45;;;;;;;15.20;4.80;;;;;;;-145.18;100.00;46636.94;4971734;28;20050;-72
2022/04/28 00:12:11;;;;;;;14.60;4.77;;;;;;;-145.18;100.00;46640.88;4970973;28;20070;-70
2022/04/28 00:14:37;;;;;;;11.50;4.83;;;;;;;-145.18;100.00;46646.72;4957554;28;20034;-70
2022/04/28 00:17:03;;;;;;;13.97;4.40;;;;;;;-145.18;100.00;46648.69;4971223;28;20019;-70
2022/04/28 00:19:31;;;;;;;15.50;4.87;;;;;;;-145.18;100.00;46668.22;4971952;28;20260;-70
2022/04/28 00:28:20;;;;;;;15.23;5.47;;;;;;;-145.18;100.00;46646.72;4971126;28;20276;-69
2022/04/28 00:33:11;;;;;;;9.73;4.60;;;;;;;-145.18;100.00;46650.63;4951522;28;20376;-70
2022/04/28 00:35:38;;;;;;;11.90;4.63;;;;;;;-145.18;100.00;46640.88;4970517;28;20088;-70
2022/04/28 00:38:04;;;;;;;12.23;5.10;;;;;;;-145.18;100.00;46635.00;4970817;28;20047;-70
2022/04/28 00:40:29;;;;;;;15.07;5.57;;;;;;;-145.18;100.00;46631.09;4970782;28;20768;-69
2022/04/28 00:43:18;;;;;;;13.10;5.20;;;;;;;-145.18;100.00;46652.59;4971099;28;20034;-69
2022/04/28 00:45:40;;;;;;;9.00;4.70;;;;;;;-145.18;100.00;46640.88;4971035;28;20039;-69
2022/04/28 00:50:49;;;;;;;12.17;5.37;;;;;;;-145.18;100.00;46629.13;4971239;28;20077;-70
2022/04/28 00:53:15;;;;;;;14.33;5.07;;;;;;;-145.18;100.00;46625.22;4970571;28;20341;-70
2022/04/28 00:55:41;;;;;;;10.90;5.43;;;;;;;-145.18;100.00;46642.81;4970977;28;20070;-70
2022/04/28 00:58:07;;;;;;;14.57;5.90;;;;;;;-145.18;100.00;46633.06;4970129;28;20308;-69
2022/04/28 01:00:33;;;;;;;15.10;6.13;;;;;;;-145.18;100.00;46631.09;4971206;28;20062;-70
2022/04/28 01:02:59;;;;;;;10.33;4.83;;;;;;;-145.18;100.00;46627.19;4970473;28;20037;-70
2022/04/28 01:05:26;;;;;;;9.40;5.33;;;;;;;-145.18;100.00;46621.31;4970624;28;20288;-70
2022/04/28 01:07:51;;;;;;;14.90;6.23;;;;;;;-145.18;100.00;46629.13;4970831;28;20400;-70
2022/04/28 01:10:17;;;;;;;12.03;5.57;;;;;;;-145.18;100.00;46611.56;4970877;28;20277;-70
2022/04/28 01:12:43;;;;;;;13.33;6.00;;;;;;;-145.18;100.00;46623.28;4970410;28;20035;-70
2022/04/28 01:15:09;;;;;;;10.73;5.43;;;;;;;-145.18;100.00;46619.38;4970607;28;20552;-70
2022/04/28 01:17:34;;;;;;;14.00;5.43;;;;;;;-145.18;100.00;46654.53;4970754;28;20269;-71
2022/04/28 01:20:00;;;;;;;14.97;5.57;;;;;;;-145.18;100.00;46652.59;4970845;28;20464;-72
2022/04/28 01:22:26;;;;;;;11.83;5.77;;;;;;;-145.18;100.00;46652.59;4953278;28;20134;-70
2022/04/28 01:24:51;;;;;;;12.33;5.20;;;;;;;-145.18;100.00;46635.00;4970993;28;20451;-69
2022/04/28 01:27:18;;;;;;;19.43;6.27;;;;;;;-145.18;100.00;46650.63;4970240;28;20327;-69
2022/04/28 01:29:44;;;;;;;11.37;5.70;;;;;;;-145.18;100.00;46652.59;4970836;28;20042;-70
2022/04/28 01:32:09;;;;;;;13.43;6.37;;;;;;;-145.18;100.00;46652.59;4970416;28;20332;-70
2022/04/28 01:34:34;;;;;;;12.57;5.53;;;;;;;-145.18;100.00;46652.59;4970590;28;20035;-69
2022/04/28 01:37:00;;;;;;;11.10;5.13;;;;;;;-145.18;100.00;46656.50;4970341;28;20034;-70
2022/04/28 01:39:25;;;;;;;14.00;5.70;;;;;;;-145.18;100.00;46636.94;4970615;28;20141;-70
2022/04/28 01:41:50;;;;;;;13.43;5.43;;;;;;;-145.18;100.00;46652.59;4970210;28;20038;-69
2022/04/28 01:44:16;;;;;;;13.43;6.37;;;;;;;-145.18;100.00;46611.56;4970534;28;20484;-70
2022/04/28 01:46:41;;;;;;;15.30;6.33;;;;;;;-145.18;100.00;46652.59;4970335;28;20034;-70
2022/04/28 01:49:07;;;;;;;13.27;6.23;;;;;;;-145.18;100.00;46640.88;4970643;28;20185;-70
2022/04/28 01:57:00;;;;;;;10.50;6.27;;;;;;;-145.18;100.00;46636.94;4970114;28;20373;-70
2022/04/28 01:59:26;;;;;;;14.20;6.57;;;;;;;-145.18;100.00;46636.94;4970665;28;20807;-70
2022/04/28 02:01:51;;;;;;;17.10;6.67;;;;;;;-145.18;100.00;46633.06;5209572;23;20089;-70
2022/04/28 02:04:16;;;;;;;17.43;6.60;;;;;;;-145.18;100.00;46636.94;4974682;28;20066;-70
2022/04/28 02:06:43;;;;;;;12.63;6.43;;;;;;;-145.18;100.00;46633.06;4980982;28;20532;-70
2022/04/28 02:09:08;;;;;;;17.63;6.70;;;;;;;-145.18;100.00;46631.09;4992086;28;20053;-70
2022/04/28 02:11:34;;;;;;;15.80;6.77;;;;;;;-145.18;100.00;46631.09;4993118;28;20272;-70
2022/04/28 02:13:59;;;;;;;19.87;7.37;;;;;;;-145.18;100.00;46621.31;4993359;28;20520;-70
2022/04/28 02:16:24;;;;;;;17.87;7.10;;;;;;;-145.18;100.00;46623.28;4993371;28;20042;-69
2022/04/28 02:18:50;;;;;;;14.13;6.67;;;;;;;-145.18;100.00;46619.38;4992885;28;20038;-70
2022/04/28 02:21:15;;;;;;;15.57;6.73;;;;;;;-145.18;100.00;46631.09;4993299;28;20143;-69
2022/04/28 02:23:40;;;;;;;15.40;7.47;;;;;;;-145.18;100.00;46625.22;4975492;28;20027;-69
2022/04/28 02:26:06;;;;;;;13.67;6.63;;;;;;;-145.18;100.00;46627.19;4993128;28;20042;-71
2022/04/28 02:28:31;;;;;;;19.87;6.93;;;;;;;-145.18;100.00;46621.31;4992762;28;20041;-72
2022/04/28 02:30:57;;;;;;;12.30;6.23;;;;;;;-145.18;100.00;46625.22;4993072;28;20110;-70
2022/04/28 02:33:22;;;;;;;15.10;7.20;;;;;;;-145.18;100.00;46623.28;4992745;28;20046;-70
2022/04/28 02:35:48;;;;;;;14.27;7.70;;;;;;;-145.18;100.00;46623.28;4992666;28;20525;-70
2022/04/28 02:38:13;;;;;;;13.60;7.13;;;;;;;-145.18;100.00;46578.34;4975026;28;20084;-70
2022/04/28 02:40:39;;;;;;;12.70;7.20;;;;;;;-145.18;100.00;46619.38;4992830;28;20034;-70
2022/04/28 02:43:04;;;;;;;15.33;7.33;;;;;;;-145.18;100.00;46578.34;4992446;28;20054;-70
2022/04/28 02:45:29;;;;;;;15.33;7.13;;;;;;;-145.18;100.00;46578.34;4992860;28;20034;-69
2022/04/28 02:47:55;;;;;;;22.93;7.20;;;;;;;-145.18;100.00;46619.38;4992207;28;20616;-70
2022/04/28 02:50:21;;;;;;;11.70;6.60;;;;;;;-145.18;100.00;46621.31;4992445;28;20038;-70
2022/04/28 02:52:50;;;;;;;18.07;7.77;;;;;;;-145.18;100.00;46625.22;4979244;28;20039;-69
2022/04/28 02:55:16;;;;;;;24.40;8.23;;;;;;;-145.18;100.00;46617.41;4973158;28;20727;-69
2022/04/28 02:57:42;;;;;;;17.70;7.60;;;;;;;-145.18;100.00;46621.31;4972632;28;20273;-69
2022/04/28 03:00:08;;;;;;;18.37;7.53;;;;;;;-145.18;100.00;46574.44;4973424;28;20031;-70
2022/04/28 03:02:35;;;;;;;15.53;8.17;;;;;;;-145.18;100.00;46574.44;4954452;28;20054;-70
2022/04/28 03:05:03;;;;;;;15.60;7.80;;;;;;;-145.18;100.00;46574.44;4988682;28;20288;-70
2022/04/28 03:12:57;;;;;;;20.37;8.37;;;;;;;-145.18;100.00;46572.50;4992027;28;20267;-70
2022/04/28 03:15:23;;;;;;;18.10;8.00;;;;;;;-145.18;100.00;46572.50;4991253;28;20288;-70
2022/04/28 03:17:50;;;;;;;18.63;8.63;;;;;;;-145.18;100.00;46574.44;4991653;28;20113;-70
2022/04/28 03:20:15;;;;;;;17.37;9.07;;;;;;;-145.18;100.00;46572.50;4991982;28;20630;-70
2022/04/28 03:22:41;;;;;;;18.87;8.83;;;;;;;-145.18;100.00;46568.59;4991900;28;20284;-69
2022/04/28 03:25:07;;;;;;;19.37;9.33;;;;;;;-145.18;100.00;46570.53;4992310;28;20047;-70
2022/04/28 03:27:32;;;;;;;19.60;8.33;;;;;;;-145.18;100.00;46574.44;4991633;28;20134;-69
2022/04/28 03:29:58;;;;;;;16.93;8.73;;;;;;;-145.18;100.00;46570.53;4992092;28;20680;-70
2022/04/28 03:32:23;;;;;;;18.93;8.30;;;;;;;-145.18;100.00;46566.63;4991686;28;20548;-69
2022/04/28 03:34:49;;;;;;;20.27;8.53;;;;;;;-145.18;100.00;46574.44;4991910;28;20057;-70
2022/04/28 03:37:15;;;;;;;22.03;8.47;;;;;;;-145.18;100.00;46576.41;4991630;28;20046;-70
2022/04/28 03:39:41;;;;;;;20.17;8.67;;;;;;;-145.18;100.00;46568.59;4992146;28;20380;-69
2022/04/28 03:42:06;;;;;;;13.07;8.43;;;;;;;-145.18;100.00;46574.44;4991596;28;20046;-71
2022/04/28 03:44:32;;;;;;;18.57;8.77;;;;;;;-145.18;100.00;46572.50;4991601;28;20681;-71
2022/04/28 03:46:58;;;;;;;17.37;8.97;;;;;;;-145.18;100.00;46574.44;4985669;28;20046;-71
2022/04/28 03:49:23;;;;;;;18.77;8.57;;;;;;;-145.18;100.00;46572.50;4980802;28;20030;-72
2022/04/28 03:51:48;;;;;;;21.20;8.60;;;;;;;-145.18;100.00;46568.59;4990474;28;20066;-72
2022/04/28 03:54:14;;;;;;;19.87;9.10;;;;;;;-145.18;100.00;46619.38;4990593;28;20030;-71
2022/04/28 03:56:39;;;;;;;22.67;8.63;;;;;;;-145.18;100.00;46578.34;4990324;28;20042;-72
2022/04/28 03:59:05;;;;;;;16.07;8.50;;;;;;;-145.18;100.00;46576.41;4990461;28;20129;-71
2022/04/28 04:01:30;;;;;;;21.83;7.80;;;;;;;-145.18;100.00;46568.59;4991072;28;20034;-71
2022/04/28 04:03:56;;;;;;;22.87;8.67;;;;;;;-145.18;100.00;46578.34;4990625;28;20051;-71
2022/04/28 04:06:21;;;;;;;19.27;8.90;;;;;;;-145.18;100.00;46572.50;4991464;28;20045;-71
2022/04/28 04:08:47;;;;;;;20.27;10.20;;;;;;;-145.18;100.00;46566.63;4972700;28;20041;-71
2022/04/28 04:11:13;;;;;;;18.90;9.20;;;;;;;-145.18;100.00;46570.53;4990672;28;20030;-71
2022/04/28 04:13:38;;;;;;;18.00;8.70;;;;;;;-145.18;100.00;46572.50;4989702;28;20038;-71
2022/04/28 04:16:05;;;;;;;16.33;8.93;;;;;;;-145.18;100.00;46574.44;4973513;28;20264;-71
2022/04/28 04:18:31;;;;;;;22.40;8.87;;;;;;;-145.18;100.00;46568.59;4990819;28;20411;-71
2022/04/28 04:20:56;;;;;;;20.63;8.87;;;;;;;-145.18;100.00;46572.50;4990935;28;20319;-71
2022/04/28 04:23:22;;;;;;;18.40;9.17;;;;;;;-145.18;100.00;46574.44;4973282;28;20284;-71
2022/04/28 04:25:48;;;;;;;22.53;8.90;;;;;;;-145.18;100.00;46570.53;4990923;28;20097;-71
2022/04/28 04:28:13;;;;;;;18.63;9.50;;;;;;;-145.18;100.00;46574.44;4990654;28;20050;-70
2022/04/28 04:33:22;;;;;;;26.70;9.73;;;;;;;-145.18;100.00;46574.44;4990242;28;20125;-70
2022/04/28 04:35:47;;;;;;;24.70;9.17;;;;;;;-145.18;100.00;46570.53;4990644;28;20347;-70
2022/04/28 04:38:13;;;;;;;28.27;9.93;;;;;;;-145.18;100.00;46574.44;4990793;28;20478;-70
2022/04/28 04:40:38;;;;;;;27.03;10.53;;;;;;;-145.18;100.00;46574.44;4990832;28;20064;-70
2022/04/28 04:43:05;;;;;;;22.97;9.40;;;;;;;-145.18;100.00;46576.41;4990382;28;20065;-70
2022/04/28 04:45:31;;;;;;;24.40;9.50;;;;;;;-145.18;100.00;46574.44;4989794;28;20136;-70
2022/04/28 04:47:56;;;;;;;19.00;9.97;;;;;;;-145.18;100.00;46623.28;4990152;28;20764;-70
2022/04/28 04:50:22;;;;;;;18.37;9.50;;;;;;;-145.18;100.00;46572.50;4990980;28;20034;-70
2022/04/28 04:52:47;;;;;;;23.13;9.87;;;;;;;-145.18;100.00;46570.53;4990195;28;20117;-70
2022/04/28 04:55:12;;;;;;;21.43;9.03;;;;;;;-145.18;100.00;46570.53;4990360;28;20486;-71
2022/04/28 04:57:38;;;;;;;27.47;9.60;;;;;;;-145.18;100.00;46568.59;4972830;28;20042;-70
2022/04/28 05:00:05;;;;;;;19.07;9.60;;;;;;;-145.18;100.00;46558.81;4973504;28;20126;-70
2022/04/28 05:02:30;;;;;;;24.70;8.57;;;;;;;-145.18;100.00;46560.78;4990101;28;20161;-70
2022/04/28 05:04:56;;;;;;;24.67;9.77;;;;;;;-145.18;100.00;46558.81;4989868;28;20686;-70
2022/04/28 05:07:21;;;;;;;24.77;9.57;;;;;;;-145.18;100.00;46560.78;4990188;28;20455;-70
2022/04/28 05:09:46;;;;;;;24.23;9.30;;;;;;;-145.18;100.00;46562.72;4990624;28;20034;-70
2022/04/28 05:12:12;;;;;;;23.77;8.87;;;;;;;-145.18;100.00;46566.63;4990554;28;20041;-70
2022/04/28 05:14:37;;;;;;;22.43;9.37;;;;;;;-145.18;100.00;46566.63;4990683;28;20042;-71
2022/04/28 05:17:03;;;;;;;24.90;10.40;;;;;;;-145.18;100.00;46562.72;4989892;28;20034;-70
2022/04/28 05:19:28;;;;;;;22.83;9.40;;;;;;;-145.18;100.00;46570.53;4990283;28;20034;-70
2022/04/28 05:21:55;;;;;;;29.43;9.73;;;;;;;-145.18;100.00;46572.50;4989697;28;20035;-70
2022/04/28 05:24:21;;;;;;;21.43;9.00;;;;;;;-145.18;100.00;46572.50;4989794;28;20027;-71
2022/04/28 05:26:47;;;;;;;25.73;9.00;;;;;;;-145.18;100.00;46576.41;4973012;28;20299;-70
2022/04/28 05:29:12;;;;;;;25.43;9.93;;;;;;;-145.18;100.00;46582.25;4972552;28;20272;-70
2022/04/28 05:31:38;;;;;;;20.23;9.37;;;;;;;-145.18;100.00;46578.34;4990352;28;20244;-70
2022/04/28 05:34:03;;;;;;;16.77;8.10;;;;;;;-145.18;100.00;46586.16;4989850;28;20066;-70
2022/04/28 05:36:29;;;;;;;23.63;9.70;;;;;;;-145.18;100.00;46590.06;4990245;28;20156;-70
2022/04/28 05:38:57;;;;;;;21.97;9.27;;;;;;;-145.18;100.00;46601.78;4989552;28;20041;-71
2022/04/28 05:41:24;;;;;;;14.37;8.17;;;;;;;-145.18;100.00;46597.88;4990420;28;20034;-71
2022/04/28 05:46:34;;;;;;;18.60;8.83;;;;;;;-145.18;100.00;46595.94;4994352;28;20333;-71
2022/04/28 05:49:00;;;;;;;22.67;9.07;;;;;;;-145.18;100.00;46601.78;4993189;28;20359;-71
2022/04/28 05:51:25;;;;;;;23.60;8.03;;;;;;;-145.18;100.00;46607.66;4994324;28;20022;-71
2022/04/28 05:53:51;;;;;;;17.13;8.53;;;;;;;-145.18;100.00;46615.47;4993390;28;20096;-71
2022/04/28 05:56:16;;;;;;;23.50;8.77;;;;;;;-145.18;100.00;46609.59;4994197;28;20066;-71
2022/04/28 05:58:41;;;;;;;16.17;7.87;;;;;;;-145.18;100.00;46607.66;4992816;28;20049;-71
2022/04/28 06:01:07;;;;;;;23.37;9.67;;;;;;;-145.18;100.00;46629.13;4993953;28;20482;-71
2022/04/28 06:03:33;;;;;;;18.40;7.63;;;;;;;-145.18;100.00;46623.28;4992732;28;20533;-71
2022/04/28 06:05:58;;;;;;;21.77;8.10;;;;;;;-145.18;100.00;46625.22;4993400;28;20026;-71
2022/04/28 06:08:23;;;;;;;22.77;8.93;;;;;;;-145.18;100.00;46635.00;4993307;28;20410;-72
2022/04/28 06:10:49;;;;;;;16.70;8.30;;;;;;;-145.18;100.00;46613.50;4992934;28;20046;-71
2022/04/28 06:13:14;;;;;;;21.23;7.73;;;;;;;-145.18;100.00;46650.63;4992177;28;20065;-71
2022/04/28 06:15:39;;;;;;;18.93;7.57;;;;;;;-145.18;100.00;46648.69;4992247;28;20042;-71
2022/04/28 06:18:06;;;;;;;19.90;8.40;;;;;;;-145.18;100.00;46656.50;4992004;28;20050;-71
2022/04/28 06:20:31;;;;;;;17.73;7.90;;;;;;;-145.18;100.00;46666.25;4992522;28;20038;-71
2022/04/28 06:22:56;;;;;;;19.37;8.30;;;;;;;-145.18;100.00;46644.78;4992707;28;20611;-71
2022/04/28 06:25:23;;;;;;;17.63;8.00;;;;;;;-145.18;100.00;46648.69;4993497;28;20096;-72
2022/04/28 06:27:50;;;;;;;14.13;7.60;;;;;;;-145.18;100.00;46670.16;4993003;28;20054;-71
2022/04/28 06:30:15;;;;;;;13.53;7.20;;;;;;;-145.18;100.00;46691.66;4993412;28;20275;-71
2022/04/28 06:32:41;;;;;;;18.17;8.23;;;;;;;-145.18;100.00;46699.47;4992192;28;20268;-71
2022/04/28 06:35:07;;;;;;;18.70;7.57;;;;;;;-145.18;100.00;46709.22;4992709;28;20758;-71
2022/04/28 06:37:32;;;;;;;18.97;7.60;;;;;;;-145.18;100.00;46703.38;4992313;28;20097;-71
2022/04/28 06:39:58;;;;;;;14.93;6.90;;;;;;;-145.18;100.00;46695.56;4992478;28;20711;-71
2022/04/28 06:42:23;;;;;;;15.50;7.60;;;;;;;-145.18;100.00;46695.56;4975486;28;20042;-71
2022/04/28 06:44:49;;;;;;;17.03;6.90;;;;;;;-145.18;100.00;46699.47;4992601;28;20031;-72
2022/04/28 06:47:14;;;;;;;17.67;6.83;;;;;;;-145.18;100.00;46715.09;4992965;28;20493;-71
2022/04/28 06:49:40;;;;;;;17.73;7.73;;;;;;;-145.18;100.00;46740.47;4992872;28;20034;-71
2022/04/28 06:52:05;;;;;;;13.27;6.57;;;;;;;-145.18;100.00;46726.81;4992790;28;20495;-71
2022/04/28 06:54:31;;;;;;;16.63;6.63;;;;;;;-145.18;100.00;46720.94;4991225;28;20038;-71
2022/04/28 06:56:58;;;;;;;20.60;6.33;;;;;;;-145.18;100.00;46740.47;4992507;28;20049;-72
2022/04/28 06:59:24;;;;;;;12.60;5.97;;;;;;;-145.18;100.00;46769.78;4992246;28;20037;-73
2022/04/28 07:01:49;;;;;;;16.37;8.03;;;;;;;-145.18;100.00;46804.94;4992650;28;20292;-72
2022/04/28 07:04:14;;;;;;;19.50;7.27;;;;;;;-145.18;100.00;46765.88;4992422;28;20086;-72
2022/04/28 07:06:40;;;;;;;16.93;6.97;;;;;;;-145.18;100.00;46756.09;4992902;28;20062;-72
2022/04/28 07:09:05;;;;;;;12.20;6.20;;;;;;;-145.18;100.00;46740.47;4991848;28;20030;-72
2022/04/28 07:11:30;;;;;;;13.77;5.93;;;;;;;-145.18;100.00;46787.38;4992630;28;20109;-72
2022/04/28 07:13:56;;;;;;;15.10;7.33;;;;;;;-145.18;100.00;46760.00;4992013;28;20060;-72
2022/04/28 07:16:21;;;;;;;13.90;5.97;;;;;;;-145.18;100.00;46806.91;4974923;28;20034;-72
2022/04/28 07:18:47;;;;;;;13.00;6.00;;;;;;;-145.18;100.00;46842.06;4991692;28;20042;-72
2022/04/28 07:21:12;;;;;;;12.37;5.70;;;;;;;-145.18;100.00;46888.94;4991325;28;20044;-72
2022/04/28 07:23:38;;;;;;;15.20;6.77;;;;;;;-145.18;100.00;46834.25;4974515;28;20112;-72
2022/04/28 07:26:03;;;;;;;15.87;6.20;;;;;;;-145.18;100.00;46777.59;4991989;28;20030;-72
2022/04/28 07:28:28;;;;;;;14.27;6.13;;;;;;;-145.18;100.00;46808.84;4991960;28;20092;-72
2022/04/28 07:30:54;;;;;;;13.53;5.37;;;;;;;-145.18;100.00;46789.31;4991096;28;20066;-72
2022/04/28 07:33:19;;;;;;;15.13;5.93;;;;;;;-145.18;100.00;47127.28;4991099;28;20038;-72
2022/04/28 07:35:44;;;;;;;19.17;6.27;;;;;;;-145.18;100.00;47392.97;4991783;28;20030;-72
2022/04/28 07:38:10;;;;;;;14.00;5.37;;;;;;;-145.18;100.00;47078.44;4991806;28;20042;-72
2022/04/28 07:40:36;;;;;;;19.10;6.47;;;;;;;-145.18;100.00;47211.28;4958046;28;20120;-72
2022/04/28 07:43:03;;;;;;;13.00;6.03;;;;;;;-145.18;100.00;47240.56;4972479;28;20038;-72
2022/04/28 07:45:28;;;;;;;15.43;6.10;;;;;;;-145.18;100.00;47287.47;4990576;28;20737;-71
2022/04/28 07:47:54;;;;;;;12.33;5.47;;;;;;;-145.18;100.00;47314.81;4989694;28;20330;-72
2022/04/28 07:50:20;;;;;;;10.70;5.90;;;;;;;-145.18;100.00;47437.91;4990762;28;20030;-72
2022/04/28 07:52:46;;;;;;;12.90;5.13;;;;;;;-145.18;100.00;47437.91;4990338;28;20027;-72
2022/04/28 07:55:12;;;;;;;13.10;4.83;;;;;;;-145.18;100.00;47434.00;4991024;28;20280;-72
2022/04/28 07:57:37;;;;;;;15.03;5.50;;;;;;;-145.18;100.00;47408.59;4990476;28;20030;-72
2022/04/28 08:00:05;;;;;;;14.30;5.80;;;;;;;-145.18;100.00;47408.59;4990708;28;20030;-72
2022/04/28 08:02:32;;;;;;;16.53;6.23;;;;;;;-145.18;100.00;47406.63;4973772;28;20046;-72
2022/04/28 08:04:57;;;;;;;13.80;5.43;;;;;;;-145.18;100.00;47369.53;4973161;28;20621;-72
2022/04/28 08:07:24;;;;;;;16.53;5.80;;;;;;;-145.18;100.00;47387.09;4990592;28;20300;-72
2022/04/28 08:09:49;;;;;;;15.23;4.60;;;;;;;-145.18;100.00;47349.97;4990576;28;20101;-72
2022/04/28 08:12:15;;;;;;;16.77;5.03;;;;;;;-145.18;100.00;47349.97;4990797;28;20664;-72
2022/04/28 08:14:40;;;;;;;9.93;4.53;;;;;;;-145.18;100.00;47340.22;4990864;28;20026;-72
2022/04/28 08:17:06;;;;;;;10.87;4.80;;;;;;;-145.18;100.00;47310.91;4988005;28;20033;-72
2022/04/28 08:19:32;;;;;;;12.97;4.97;;;;;;;-145.18;100.00;47326.53;4990093;28;20070;-72
2022/04/28 08:21:58;;;;;;;15.93;4.37;;;;;;;-145.18;100.00;47324.59;4990750;28;20039;-72
2022/04/28 08:24:23;;;;;;;15.03;4.50;;;;;;;-145.18;100.00;47318.72;4990552;28;20359;-72
2022/04/28 08:26:49;;;;;;;16.93;5.53;;;;;;;-145.18;100.00;47285.50;4989752;28;20671;-72
2022/04/28 08:29:15;;;;;;;14.53;5.50;;;;;;;-145.18;100.00;47297.22;4972297;28;20562;-72
2022/04/28 08:31:44;;;;;;;13.37;4.90;;;;;;;-145.18;100.00;47297.22;4988426;28;20288;-72
2022/04/28 08:34:14;;;;;;;13.23;4.47;;;;;;;-145.18;100.00;47289.41;4989863;28;20092;-72
2022/04/28 08:36:40;;;;;;;17.87;5.20;;;;;;;-145.18;100.00;47291.38;4990874;28;20912;-72
2022/04/28 08:39:06;;;;;;;12.40;5.27;;;;;;;-145.18;100.00;47279.66;4989560;28;21106;-73
2022/04/28 08:41:37;;;;;;;18.00;6.67;;;;;;;-145.18;100.00;47279.66;4973392;28;20280;-73
2022/04/28 08:44:05;;;;;;;15.60;4.57;;;;;;;-145.18;100.00;47283.56;4990488;28;20399;-73
2022/04/28 08:49:21;;;;;;;13.37;4.70;;;;;;;-145.18;100.00;47301.16;4990452;28;20756;-72
2022/04/28 08:51:47;;;;;;;10.90;4.80;;;;;;;-145.18;100.00;47283.56;4990553;28;20268;-72
2022/04/28 08:54:14;;;;;;;22.83;4.80;;;;;;;-145.18;100.00;47271.84;4979865;28;20284;-73
2022/04/28 08:56:39;;;;;;;16.80;4.40;;;;;;;-145.18;100.00;47277.69;4968544;28;20168;-72
2022/04/28 08:59:06;;;;;;;11.17;4.93;;;;;;;-145.18;100.00;47260.13;4969317;28;20363;-71
2022/04/28 09:01:32;;;;;;;13.50;4.63;;;;;;;-145.18;100.00;47264.03;4973676;28;20034;-71
2022/04/28 09:04:05;;;;;;;12.47;5.53;;;;;;;-145.18;100.00;47256.22;4989319;28;20296;-72
2022/04/28 09:06:35;;;;;;;11.00;5.03;;;;;;;-145.18;100.00;47242.53;4990626;28;20038;-71
2022/04/28 09:09:06;;;;;;;15.23;4.67;;;;;;;-145.18;100.00;47258.16;4990106;28;20513;-71
2022/04/28 09:11:37;;;;;;;15.80;4.80;;;;;;;-145.18;100.00;47234.72;4990529;28;20276;-71
2022/04/28 09:14:14;;;;;;;11.53;4.07;;;;;;;-145.18;100.00;47242.53;4990344;28;20268;-71
2022/04/28 09:16:51;;;;;;;15.67;4.60;;;;;;;-145.18;100.00;47248.41;4990573;28;20295;-71
2022/04/28 09:19:24;;;;;;;8.80;4.37;;;;;;;-145.18;100.00;47258.16;4992302;28;20038;-72
2022/04/28 09:21:55;;;;;;;12.20;4.63;;;;;;;-145.18;100.00;47223.00;4994448;28;20042;-71
2022/04/28 09:24:22;;;;;;;14.00;5.10;;;;;;;-145.18;100.00;47234.72;4974485;28;20102;-71
2022/04/28 09:26:49;;;;;;;17.90;4.97;;;;;;;-145.18;100.00;47240.56;4974668;28;20066;-71
2022/04/28 09:29:15;;;;;;;17.17;4.67;;;;;;;-145.18;100.00;47219.09;4974480;28;20057;-72
2022/04/28 09:31:46;;;;;;;16.20;4.97;;;;;;;-145.18;100.00;47213.22;4974739;28;20027;-71
2022/04/28 09:34:14;;;;;;;14.53;4.97;;;;;;;-145.18;100.00;47226.91;4974176;28;20769;-71
2022/04/28 09:36:41;;;;;;;15.60;4.67;;;;;;;-145.18;100.00;47234.72;4974825;28;20145;-71
2022/04/28 09:42:29;;;;;;;13.17;4.73;;;;;;;-145.18;100.00;47226.91;4974337;28;20038;-71
2022/04/28 09:44:55;;;;;;;12.63;5.20;;;;;;;-145.18;100.00;47219.09;4974274;28;20175;-71
2022/04/28 09:47:22;;;;;;;12.30;4.90;;;;;;;-145.18;100.00;47203.47;4956918;28;20113;-71
2022/04/28 09:49:52;;;;;;;13.53;6.07;;;;;;;-145.18;100.00;47240.56;4974396;28;20065;-71
2022/04/28 09:52:28;;;;;;;16.73;5.30;;;;;;;-145.18;100.00;47246.44;4974798;28;20041;-71
2022/04/28 09:54:56;;;;;;;16.90;5.47;;;;;;;-145.18;100.00;47226.91;4973754;28;20030;-71
2022/04/28 09:57:23;;;;;;;13.03;4.80;;;;;;;-145.18;100.00;47205.41;4974091;28;20476;-71
2022/04/28 09:59:55;;;;;;;18.27;5.73;;;;;;;-145.18;100.00;47215.19;4973767;28;20027;-71
2022/04/28 10:02:25;;;;;;;9.90;5.03;;;;;;;-145.18;100.00;47221.03;4974022;28;20043;-71
2022/04/28 10:04:52;;;;;;;12.33;5.40;;;;;;;-145.18;100.00;47230.81;4973467;28;20493;-71
2022/04/28 10:07:18;;;;;;;12.67;5.77;;;;;;;-145.18;100.00;47230.81;4976439;28;20042;-71
2022/04/28 10:09:49;;;;;;;13.40;5.83;;;;;;;-145.18;100.00;47185.88;4993183;28;20057;-71
2022/04/28 10:12:19;;;;;;;19.40;5.77;;;;;;;-145.18;100.00;47199.56;4993635;28;20522;-71
2022/04/28 10:14:46;;;;;;;15.53;6.47;;;;;;;-145.18;100.00;47207.38;4993320;28;20026;-73
2022/04/28 10:17:18;;;;;;;10.17;4.67;;;;;;;-145.18;100.00;47205.41;4992643;28;20037;-71
2022/04/28 10:19:50;;;;;;;15.03;5.70;;;;;;;-145.18;100.00;47224.94;4992507;28;20026;-71
2022/04/28 10:22:20;;;;;;;14.87;5.90;;;;;;;-145.18;100.00;47215.19;4992780;28;20018;-71
2022/04/28 10:33:10;;;;;;;17.23;6.47;;;;;;;-145.18;100.00;47183.94;4993189;28;20097;-71
2022/04/28 10:35:50;;;;;;;17.47;6.77;;;;;;;-145.18;100.00;47172.19;4975684;28;20038;-71
2022/04/28 10:38:22;;;;;;;16.30;6.10;;;;;;;-145.18;100.00;47181.97;4992300;28;20052;-71
2022/04/28 10:41:08;;;;;;;11.63;5.80;;;;;;;-145.18;100.00;47185.88;4993259;28;20471;-71
2022/04/28 10:43:33;;;;;;;;;;;;;;;-145.18;100.00;47160.47;4991144;28;20144;-71
2022/04/28 10:46:07;;;;;;;11.93;5.70;;;;;;;-145.18;100.00;47144.84;4991293;28;19917;-71
2022/04/28 10:48:42;;;;;;;10.90;5.13;;;;;;;-145.18;100.00;47160.47;4990768;28;20308;-71
2022/04/28 10:51:26;;;;;;;13.03;5.60;;;;;;;-145.18;100.00;47144.84;4992764;28;20467;-72
2022/04/28 10:54:00;;;;;;;12.37;5.80;;;;;;;-145.18;100.00;47176.09;4987247;28;20128;-71
2022/04/28 10:56:28;;;;;;;13.93;6.03;;;;;;;-145.18;100.00;47180.03;4992564;28;20073;-71
2022/04/28 10:59:21;;;;;;;13.07;5.17;;;;;;;-145.18;100.00;47168.28;4991925;28;20101;-71
2022/04/28 11:01:47;;;;;;;16.63;5.83;;;;;;;-145.18;100.00;47156.56;4992774;28;20057;-72
2022/04/28 11:04:15;;;;;;;14.37;5.90;;;;;;;-145.18;100.00;47172.19;4991949;28;20065;-71
2022/04/28 11:06:51;;;;;;;9.47;4.83;;;;;;;-145.18;100.00;47140.94;4992805;28;20475;-72
2022/04/28 11:09:33;;;;;;;11.25;5.63;;;;;;;-145.18;100.00;47137.03;4992448;28;20472;-72
2022/04/28 11:12:10;;;;;;;12.53;5.70;;;;;;;-145.18;100.00;47111.66;4992573;28;20038;-72
2022/04/28 11:14:46;;;;;;;10.73;5.67;;;;;;;-145.18;100.00;47135.09;4991926;28;20065;-71
2022/04/28 11:17:12;;;;;;;16.17;5.20;;;;;;;-145.18;100.00;47121.41;4991924;28;20578;-71
2022/04/28 11:19:40;;;;;;;12.37;5.20;;;;;;;-145.18;100.00;47137.03;4991869;28;20034;-71
2022/04/28 11:22:05;;;;;;;11.90;5.60;;;;;;;-145.18;100.00;47144.84;4992274;28;20038;-71
2022/04/28 11:24:32;;;;;;;17.13;5.60;;;;;;;-145.18;100.00;47148.75;4992130;28;20509;-71
2022/04/28 11:26:58;;;;;;;15.30;5.60;;;;;;;-145.18;100.00;47133.13;4991766;28;20121;-72
2022/04/28 11:29:24;;;;;;;12.63;5.17;;;;;;;-145.18;100.00;47117.50;4992053;28;20501;-72
2022/04/28 11:31:49;;;;;;;13.93;5.70;;;;;;;-145.18;100.00;47125.31;4992297;28;20046;-72
2022/04/28 11:34:17;;;;;;;14.87;5.47;;;;;;;-145.18;100.00;47131.19;4991502;28;20041;-72
2022/04/28 11:36:43;;;;;;;12.83;5.13;;;;;;;-145.18;100.00;47123.38;4991813;28;20677;-72
2022/04/28 11:39:09;;;;;;;10.20;4.63;;;;;;;-145.18;100.00;47133.13;4991315;28;20085;-72
2022/04/28 11:41:39;;;;;;;11.67;5.67;;;;;;;-145.18;100.00;47164.38;4990948;28;20062;-71